Time;durP1;ratioP1;P1;durP2;ratioP2;P2;SDS_P1;SDS_P2;PMS_P1;PMS_P2;Temp;Humidity;BMP_temperature;BMP_pressure;BME280_temperature;BME280_humidity;BME280_pressure;Samples;Min_cycle;Max_cycle;Signal;HPM_P1;HPM_P2
2022/01/05 00:00:42;;;;;;;;;;;;;;;18.80;55.21;100006.97;10458016;28;19975;-68
2022/01/05 00:05:44;;;;;;;;;;;;;;;18.80;55.31;100009.69;10457208;28;19932;-69
2022/01/05 00:10:47;;;;;;;;;;;;;;;18.80;55.22;100014.22;10458291;28;20283;-68
2022/01/05 00:15:48;;;;;;;;;;;;;;;18.79;55.21;100010.66;10457611;28;19932;-68
2022/01/05 00:20:50;;;;;;;;;;;;;;;18.77;55.04;100014.59;10453626;28;20460;-68
2022/01/05 00:25:53;;;;;;;;;;;;;;;18.78;55.24;100032.50;10465609;28;19924;-68
2022/01/05 00:30:54;;;;;;;;;;;;;;;18.77;54.95;100017.28;10460424;28;20067;-69
2022/01/05 00:35:55;;;;;;;;;;;;;;;18.76;54.95;100015.59;10462457;28;20002;-68
2022/01/05 00:41:00;;;;;;;;;;;;;;;18.76;54.90;100024.59;10464524;28;19924;-68
2022/01/05 00:46:01;;;;;;;;;;;;;;;18.75;55.05;100020.19;10464201;28;19935;-68
2022/01/05 00:51:03;;;;;;;;;;;;;;;18.75;54.84;100016.63;10458453;28;19963;-69
2022/01/05 00:56:06;;;;;;;;;;;;;;;18.75;54.90;100012.06;10463695;28;19928;-69
2022/01/05 01:01:07;;;;;;;;;;;;;;;18.74;54.73;100025.78;10461376;28;19956;-68
2022/01/05 01:06:09;;;;;;;;;;;;;;;18.71;54.64;100024.28;10459649;28;20391;-69
2022/01/05 01:11:11;;;;;;;;;;;;;;;18.71;54.51;100031.56;10461749;28;20339;-68
2022/01/05 01:16:13;;;;;;;;;;;;;;;18.68;54.69;100036.31;10462117;28;20470;-69
2022/01/05 01:21:14;;;;;;;;;;;;;;;18.67;54.61;100029.22;10455752;28;20042;-68
2022/01/05 01:26:17;;;;;;;;;;;;;;;18.66;54.59;100030.22;10462322;28;20153;-69
2022/01/05 01:31:19;;;;;;;;;;;;;;;18.64;54.57;100026.03;10461845;28;20011;-68
2022/01/05 01:36:20;;;;;;;;;;;;;;;18.61;54.45;100026.38;10460516;28;19928;-68
2022/01/05 01:41:23;;;;;;;;;;;;;;;18.62;54.59;100025.38;10461844;28;20869;-68
2022/01/05 01:46:24;;;;;;;;;;;;;;;18.61;53.71;100029.97;10462691;28;20094;-68
2022/01/05 01:51:26;;;;;;;;;;;;;;;18.61;54.54;100035.38;10460638;28;20453;-68
2022/01/05 01:56:32;;;;;;;;;;;;;;;18.60;54.28;100041.78;10463003;28;19924;-68
2022/01/05 02:01:34;;;;;;;;;;;;;;;18.60;54.38;100039.09;10462032;28;19932;-68
2022/01/05 02:06:35;;;;;;;;;;;;;;;18.59;54.14;100036.56;10464717;28;19959;-68
2022/01/05 02:11:38;;;;;;;;;;;;;;;18.59;54.04;100059.06;10460180;28;19978;-69
2022/01/05 02:16:43;;;;;;;;;;;;;;;18.58;54.00;100051.94;10462273;28;20414;-68
2022/01/05 02:21:46;;;;;;;;;;;;;;;18.58;54.09;100054.66;10460967;28;20356;-69
2022/01/05 02:26:47;;;;;;;;;;;;;;;18.58;53.86;100051.13;10461907;28;19971;-68
2022/01/05 02:31:49;;;;;;;;;;;;;;;18.57;54.06;100055.69;10458805;28;20805;-69
2022/01/05 02:36:52;;;;;;;;;;;;;;;18.57;53.72;100049.41;10458169;28;19998;-68
2022/01/05 02:41:53;;;;;;;;;;;;;;;18.55;53.60;100055.00;10460456;28;20406;-68
2022/01/05 02:46:54;;;;;;;;;;;;;;;18.53;53.71;100050.81;10460205;28;20050;-68
2022/01/05 02:51:58;;;;;;;;;;;;;;;18.53;53.66;100056.22;10461588;28;19924;-68
2022/01/05 02:56:59;;;;;;;;;;;;;;;18.53;53.52;100058.94;10459514;28;19928;-68
2022/01/05 03:02:00;;;;;;;;;;;;;;;18.52;53.62;100062.69;10460537;28;20284;-69
2022/01/05 03:07:03;;;;;;;;;;;;;;;18.51;53.76;100071.78;10459216;28;20593;-68
2022/01/05 03:12:05;;;;;;;;;;;;;;;18.52;53.67;100073.50;10456884;28;19924;-69
2022/01/05 03:17:07;;;;;;;;;;;;;;;18.51;53.66;100077.19;10458090;28;19925;-68
2022/01/05 03:22:09;;;;;;;;;;;;;;;18.51;53.47;100077.19;10458809;28;19928;-68
2022/01/05 03:27:11;;;;;;;;;;;;;;;18.49;53.38;100093.59;10459727;28;20453;-68
2022/01/05 03:32:12;;;;;;;;;;;;;;;18.48;53.27;100094.66;10459101;28;19986;-68
2022/01/05 03:37:15;;;;;;;;;;;;;;;18.46;53.25;100097.53;10459159;28;20378;-69
2022/01/05 03:42:16;;;;;;;;;;;;;;;18.46;53.29;100096.69;10456638;28;19931;-67
2022/01/05 03:47:18;;;;;;;;;;;;;;;18.44;53.27;100104.13;10457532;28;20002;-69
2022/01/05 03:52:21;;;;;;;;;;;;;;;18.44;53.33;100109.53;10461126;28;19931;-67
2022/01/05 03:57:22;;;;;;;;;;;;;;;18.43;53.12;100105.97;10457115;28;19970;-68
2022/01/05 04:02:23;;;;;;;;;;;;;;;18.42;53.10;100111.56;10469124;28;19920;-68
2022/01/05 04:07:26;;;;;;;;;;;;;;;18.43;52.99;100110.56;10464660;28;20709;-68
2022/01/05 04:12:27;;;;;;;;;;;;;;;18.43;53.02;100127.63;10462967;28;19960;-69
2022/01/05 04:17:29;;;;;;;;;;;;;;;18.41;53.20;100118.00;10469041;28;20006;-69
2022/01/05 04:22:32;;;;;;;;;;;;;;;18.41;52.75;100126.97;10466618;28;20153;-69
2022/01/05 04:27:33;;;;;;;;;;;;;;;18.39;53.13;100131.72;10464581;28;19970;-69
2022/01/05 04:32:35;;;;;;;;;;;;;;;18.38;52.93;100140.81;10466359;28;20025;-69
2022/01/05 04:37:38;;;;;;;;;;;;;;;18.39;52.74;100136.28;10465430;28;19935;-69
2022/01/05 04:42:39;;;;;;;;;;;;;;;18.38;52.93;100143.53;10461980;28;19990;-68
2022/01/05 04:47:41;;;;;;;;;;;;;;;18.38;53.13;100129.19;10467318;28;20073;-70
2022/01/05 04:52:43;;;;;;;;;;;;;;;18.38;52.62;100123.78;10465043;28;19921;-69
2022/01/05 04:57:45;;;;;;;;;;;;;;;18.38;52.83;100132.72;10465844;28;20022;-68
2022/01/05 05:02:48;;;;;;;;;;;;;;;18.35;52.76;100130.38;10462404;28;19935;-69
2022/01/05 05:07:51;;;;;;;;;;;;;;;18.36;52.55;100139.34;10464907;28;19928;-69
2022/01/05 05:12:52;;;;;;;;;;;;;;;18.35;52.47;100154.72;10462103;28;19946;-69
2022/01/05 05:17:54;;;;;;;;;;;;;;;18.35;52.53;100154.72;10464819;28;20007;-69
2022/01/05 05:22:56;;;;;;;;;;;;;;;18.33;52.59;100155.91;10463937;28;19981;-69
2022/01/05 05:27:58;;;;;;;;;;;;;;;18.33;52.53;100156.78;10465869;28;19928;-69
2022/01/05 05:33:00;;;;;;;;;;;;;;;18.32;52.49;100167.75;10463769;28;19928;-68
2022/01/05 05:38:02;;;;;;;;;;;;;;;18.29;52.69;100167.09;10462183;28;19920;-69
2022/01/05 05:43:05;;;;;;;;;;;;;;;18.31;52.39;100163.34;10463774;28;20078;-68
2022/01/05 05:48:06;;;;;;;;;;;;;;;18.31;52.62;100157.94;10462832;28;20427;-70
2022/01/05 05:53:09;;;;;;;;;;;;;;;18.29;52.36;100160.84;10463770;28;19931;-68
2022/01/05 05:58:10;;;;;;;;;;;;;;;18.29;52.58;100163.56;10462405;28;19928;-68
2022/01/05 06:03:12;;;;;;;;;;;;;;;18.28;52.54;100159.16;10460046;28;19983;-69
2022/01/05 06:08:14;;;;;;;;;;;;;;;18.27;52.37;100162.88;10464178;28;20014;-69
2022/01/05 06:13:16;;;;;;;;;;;;;;;18.26;52.10;100178.25;10461488;28;20069;-69
2022/01/05 06:18:17;;;;;;;;;;;;;;;18.25;52.16;100168.47;10458565;28;19963;-69
2022/01/05 06:23:20;;;;;;;;;;;;;;;18.29;52.28;100177.06;10463691;28;19970;-69
2022/01/05 06:28:21;;;;;;;;;;;;;;;18.33;52.21;100186.50;10460569;28;19928;-69
2022/01/05 06:33:23;;;;;;;;;;;;;;;18.36;52.42;100190.72;10458105;28;19932;-68
2022/01/05 06:38:26;;;;;;;;;;;;;;;18.40;52.21;100189.34;10459639;28;19928;-69
2022/01/05 06:43:28;;;;;;;;;;;;;;;18.42;52.31;100196.28;10455778;28;19929;-70
2022/01/05 06:48:29;;;;;;;;;;;;;;;18.46;52.30;100202.16;10440931;28;20121;-70
2022/01/05 06:53:32;;;;;;;;;;;;;;;18.48;52.26;100206.38;10451246;28;20046;-70
2022/01/05 06:58:34;;;;;;;;;;;;;;;18.49;52.12;100218.84;10450179;28;20009;-69
2022/01/05 07:03:35;;;;;;;;;;;;;;;18.50;52.12;100203.50;10451793;28;19936;-69
2022/01/05 07:08:38;;;;;;;;;;;;;;;18.47;51.54;100210.06;10452041;28;20023;-71
2022/01/05 07:13:39;;;;;;;;;;;;;;;18.39;51.25;100222.81;10454484;28;20401;-70
2022/01/05 07:18:41;;;;;;;;;;;;;;;18.33;50.88;100237.03;10453218;28;19969;-70
2022/01/05 07:23:44;;;;;;;;;;;;;;;18.28;51.26;100232.16;10458397;28;19924;-70
2022/01/05 07:28:46;;;;;;;;;;;;;;;18.26;51.09;100247.72;10450713;28;20007;-69
2022/01/05 07:33:47;;;;;;;;;;;;;;;18.30;51.22;100254.44;10450009;28;20044;-71
2022/01/05 07:38:50;;;;;;;;;;;;;;;18.30;51.20;100257.16;10457585;28;19924;-69
2022/01/05 07:43:52;;;;;;;;;;;;;;;18.30;51.04;100276.09;10455587;28;20342;-68
2022/01/05 07:48:53;;;;;;;;;;;;;;;18.26;51.41;100256.66;10455111;28;19921;-70
2022/01/05 07:53:56;;;;;;;;;;;;;;;18.33;51.14;100273.03;10461143;28;19928;-69
2022/01/05 07:58:58;;;;;;;;;;;;;;;18.34;51.35;100288.22;10458681;28;20021;-70
2022/01/05 08:03:59;;;;;;;;;;;;;;;18.31;51.28;100290.44;10451967;28;20433;-69
2022/01/05 08:09:02;;;;;;;;;;;;;;;18.31;51.30;100291.31;10457692;28;19924;-70
2022/01/05 08:14:04;;;;;;;;;;;;;;;18.35;51.17;100294.50;10454829;28;19944;-67
2022/01/05 08:19:05;;;;;;;;;;;;;;;18.33;50.58;100291.09;10448409;28;19932;-71
2022/01/05 08:24:08;;;;;;;;;;;;;;;18.32;49.99;100302.97;10452134;28;20093;-70
2022/01/05 08:29:09;;;;;;;;;;;;;;;18.32;49.84;100308.38;10455649;28;20058;-71
2022/01/05 08:34:11;;;;;;;;;;;;;;;18.29;49.99;100333.91;10453813;28;20023;-70
2022/01/05 08:39:14;;;;;;;;;;;;;;;18.29;50.32;100333.91;10456328;28;20263;-70
2022/01/05 08:44:15;;;;;;;;;;;;;;;18.28;49.58;100343.00;10462530;28;20662;-70
2022/01/05 08:49:17;;;;;;;;;;;;;;;18.27;49.78;100355.69;10462707;28;19928;-70
2022/01/05 08:54:19;;;;;;;;;;;;;;;18.29;49.70;100363.66;10461045;28;20419;-70
2022/01/05 08:59:21;;;;;;;;;;;;;;;18.31;50.27;100361.63;10466874;28;19928;-70
2022/01/05 09:04:23;;;;;;;;;;;;;;;18.33;50.08;100373.09;10454445;28;20102;-71
2022/01/05 09:09:25;;;;;;;;;;;;;;;18.37;50.32;100365.50;10461636;28;19928;-71
2022/01/05 09:14:27;;;;;;;;;;;;;;;18.40;50.57;100381.34;10466350;28;19924;-66
2022/01/05 09:19:28;;;;;;;;;;;;;;;18.44;50.79;100369.16;10461229;28;19943;-66
2022/01/05 09:24:32;;;;;;;;;;;;;;;18.52;50.58;100389.97;10457684;28;20414;-67
2022/01/05 09:29:34;;;;;;;;;;;;;;;18.53;50.28;100406.00;10465535;28;20311;-65
2022/01/05 09:34:35;;;;;;;;;;;;;;;18.56;50.26;100397.53;10452366;28;20019;-66
2022/01/05 09:44:58;;;;;;;;;;;;;;;18.57;50.60;100414.63;10460725;28;19920;-65
2022/01/05 09:50:01;;;;;;;;;;;;;;;18.59;50.55;100420.69;10454040;28;19975;-65
2022/01/05 09:55:04;;;;;;;;;;;;;;;18.59;50.71;100435.09;10456925;28;19928;-65
2022/01/05 10:00:06;;;;;;;;;;;;;;;18.59;50.55;100451.31;10462685;28;19970;-64
2022/01/05 10:05:09;;;;;;;;;;;;;;;18.57;51.04;100450.66;10451608;28;20587;-65
2022/01/05 10:10:12;;;;;;;;;;;;;;;18.56;51.27;100457.06;10457369;28;19955;-65
2022/01/05 10:15:14;;;;;;;;;;;;;;;18.54;51.15;100456.38;10456450;28;20375;-65
2022/01/05 10:20:15;;;;;;;;;;;;;;;18.53;51.21;100472.78;10457687;28;20398;-64
2022/01/05 10:25:21;;;;;;;;;;;;;;;18.54;51.41;100474.50;10455386;28;19924;-65
2022/01/05 13:37:06;;;;;;;1.83;1.53;;;;;;;9.76;63.22;100629.50;10520976;27;1282384;-77
2022/01/05 13:42:10;;;;;;;3.13;2.63;;;;;;;8.84;65.93;100585.34;10530498;28;20218;-77
2022/01/05 13:47:12;;;;;;;;;;;;;;;8.86;67.59;100636.69;10536487;28;20254;-78
2022/01/05 13:52:15;;;;;;;;;;;;;;;8.72;68.99;100651.78;10539770;28;19924;-78
2022/01/05 13:57:26;;;;;;;;;;;;;;;8.72;70.92;100649.13;10537055;28;19928;-78
2022/01/05 14:02:28;;;;;;;;;;;;;;;8.71;71.45;100657.19;10475392;28;19928;-78
2022/01/05 14:07:31;;;;;;;;;;;;;;;8.71;72.51;100678.50;10414314;28;19925;-79
2022/01/05 14:12:35;;;;;;;;;;;;;;;8.72;71.93;100669.53;10414999;28;19936;-78
2022/01/05 14:17:37;;;;;;;;;;;;;;;8.66;73.49;100697.44;10411766;28;20009;-78
2022/01/05 14:22:40;;;;;;;;;;;;;;;8.62;72.81;100681.78;10412419;28;19948;-78
2022/01/05 14:27:42;;;;;;;;;;;;;;;8.63;74.32;100696.81;10412960;28;19926;-78
2022/01/05 14:32:44;;;;;;;;;;;;;;;8.54;74.75;100701.75;10409092;28;20040;-78
2022/01/05 14:38:00;;;;;;;;;;;;;;;8.57;74.56;100711.38;10408303;28;19925;-78
2022/01/05 14:43:02;;;;;;;;;;;;;;;8.57;74.61;100724.69;10412393;28;19978;-78
2022/01/05 14:48:04;;;;;;;;;;;;;;;8.61;73.89;100747.47;10389602;28;19925;-80
2022/01/05 14:53:07;;;;;;;;;;;;;;;8.57;75.16;100738.84;10388838;28;19976;-79
2022/01/05 14:58:09;;;;;;;;;;;;;;;8.54;76.40;100748.81;10342761;28;19935;-74
2022/01/05 15:03:10;;;;;;;;;;;;;;;8.46;75.13;100762.63;10429506;28;19924;-74
2022/01/05 15:08:13;;;;;;;;;;;;;;;8.45;76.45;100776.88;10423033;28;19932;-75
2022/01/05 15:13:14;;;;;;;;;;;;;;;8.43;76.57;100785.94;10424239;28;19925;-74
2022/01/05 15:18:16;;;;;;;;;;;;;;;8.42;77.43;100792.19;10420843;28;20392;-76
2022/01/05 15:23:19;;;;;;;;;;;;;;;8.38;77.53;100787.06;10421582;28;20376;-76
2022/01/05 15:28:20;;;;;;;;;;;;;;;8.30;78.11;100776.00;10425741;28;20392;-76
2022/01/05 15:33:22;;;;;;;;;;;;;;;8.28;78.04;100799.22;10426258;28;20635;-76
2022/01/05 15:38:25;;;;;;;;;;;;;;;8.28;78.09;100806.34;10433624;28;19936;-75
2022/01/05 15:43:26;;;;;;;;;;;;;;;8.30;79.21;100810.59;10435372;28;19924;-75
2022/01/05 15:48:28;;;;;;;;;;;;;;;8.34;79.15;100820.13;10427466;28;19925;-75
2022/01/05 15:53:32;;;;;;;;;;;;;;;8.29;78.95;100830.19;10429565;28;20907;-75
2022/01/05 16:03:53;;;;;;;;;;;;;;;8.29;80.35;100837.34;10420435;28;20303;-75
2022/01/05 16:08:56;;;;;;;;;;;;;;;8.30;79.71;100847.84;10416463;28;19928;-75
2022/01/05 16:13:58;;;;;;;;;;;;;;;8.30;81.07;100852.34;10426828;28;20372;-75
2022/01/05 16:18:59;;;;;;;;;;;;;;;8.36;81.63;100876.78;10426040;28;19936;-74
2022/01/05 16:24:03;;;;;;;;;;;;;;;8.37;80.89;100909.56;10425474;28;20659;-75
2022/01/05 16:29:05;;;;;;;;;;;;;;;8.37;81.62;100891.78;10426941;28;19929;-75
2022/01/05 16:34:06;;;;;;;;;;;;;;;8.35;81.21;100901.66;10452166;28;19945;-75
2022/01/05 16:39:10;;;;;;;;;;;;;;;8.36;80.01;100915.81;10466388;28;20265;-76
2022/01/05 16:44:12;;;;;;;;;;;;;;;8.31;80.60;100910.78;10465808;28;19935;-76
2022/01/05 16:49:14;;;;;;;;;;;;;;;8.26;80.34;100904.03;10462101;28;19935;-76
2022/01/05 16:54:18;;;;;;;;;;;;;;;8.26;80.16;100907.53;10461261;28;19975;-76
2022/01/05 17:04:40;;;;;;;;;;;;;;;8.23;79.17;100930.81;10417254;28;19928;-76
2022/01/05 17:09:43;;;;;;;;;;;;;;;8.18;78.79;100942.59;10410506;28;20487;-75
2022/01/05 17:14:45;;;;;;;;;;;;;;;8.21;79.57;100941.56;10409791;28;19944;-75
2022/01/05 17:19:47;;;;;;;;;;;;;;;8.19;79.04;100957.63;10418405;28;19920;-75
2022/01/05 17:24:49;;;;;;;;;;;;;;;8.12;79.12;100964.25;10415083;28;19929;-76
2022/01/05 17:29:51;;;;;;;;;;;;;;;8.11;79.46;100957.22;10422808;28;19921;-75
2022/01/05 17:34:52;;;;;;;;;;;;;;;8.09;79.67;100969.75;10417105;28;19921;-75
2022/01/05 17:39:56;;;;;;;;;;;;;;;8.08;80.00;100976.03;10415758;28;19928;-75
2022/01/05 17:44:57;;;;;;;;;;;;;;;8.11;80.99;100989.13;10423130;28;19924;-76
2022/01/05 17:49:59;;;;;;;;;;;;;;;8.09;80.19;101009.66;10417972;28;19925;-76
2022/01/05 17:55:02;;;;;;;;;;;;;;;7.99;79.50;100990.72;10418955;28;19936;-76
2022/01/05 18:00:05;;;;;;;;;;;;;;;7.89;80.06;100992.22;10416046;28;20387;-76
2022/01/05 18:05:07;;;;;;;;;;;;;;;7.89;80.77;101007.28;10470493;28;19928;-75
2022/01/05 18:10:10;;;;;;;;;;;;;;;7.90;79.86;101017.00;10465185;28;19924;-75
2022/01/05 18:15:11;;;;;;;;;;;;;;;7.89;80.72;101021.47;10461920;28;19925;-75
2022/01/05 18:20:13;;;;;;;;;;;;;;;7.92;80.73;101028.41;10472947;28;20391;-75
2022/01/05 18:25:16;;;;;;;;;;;;;;;7.93;80.70;101041.63;10475595;28;19924;-75
2022/01/05 18:30:18;;;;;;;;;;;;;;;7.94;81.32;101053.97;10467266;28;20607;-75
2022/01/05 18:35:20;;;;;;;;;;;;;;;7.95;81.24;101061.00;10475159;28;19928;-75
2022/01/05 18:40:23;;;;;;;;;;;;;;;7.95;80.83;101078.78;10474852;28;19931;-75
2022/01/05 18:45:24;;;;;;;;;;;;;;;7.94;80.89;101093.84;10469906;28;20411;-75
2022/01/05 18:50:27;;;;;;;;;;;;;;;7.88;81.17;101098.69;10472481;28;19924;-75
2022/01/05 18:55:30;;;;;;;;;;;;;;;7.82;80.72;101096.34;10472510;28;19947;-75
2022/01/05 19:00:32;;;;;;;;;;;;;;;7.79;81.45;101102.69;10460807;28;19993;-76
2022/01/05 19:05:33;;;;;;;;;;;;;;;7.81;81.26;101095.50;10471466;28;20581;-76
2022/01/05 19:10:36;;;;;;;;;;;;;;;7.82;80.97;101099.00;10471310;28;19959;-76
2022/01/05 19:15:37;;;;;;;;;;;;;;;7.81;80.28;101098.16;10465544;28;19924;-76
2022/01/05 19:20:39;;;;;;;;;;;;;;;7.79;81.07;101106.19;10465983;28;19928;-76
2022/01/05 19:25:43;;;;;;;;;;;;;;;7.78;80.43;101111.63;10467381;28;20054;-76
2022/01/05 19:30:44;;;;;;;;;;;;;;;7.79;79.73;101129.28;10464849;28;19924;-76
2022/01/05 19:35:46;;;;;;;;;;;;;;;7.70;80.63;101127.97;10466860;28;19928;-76
2022/01/05 19:40:49;;;;;;;;;;;;;;;7.70;80.93;101135.97;10467359;28;19928;-77
2022/01/05 19:45:50;;;;;;;;;;;;;;;7.71;80.82;101144.81;10471576;28;19920;-76
2022/01/05 19:51:01;;;;;;;;;;;;;;;7.72;80.19;101143.84;10469196;28;20390;-76
2022/01/05 19:56:21;;;;;;;;;;;;;;;7.72;80.83;101152.72;10471671;28;20362;-78
2022/01/05 20:01:23;;;;;;;;;;;;;;;7.68;79.18;101159.13;10469900;28;20018;-77
2022/01/05 20:06:24;;;;;;;;;;;;;;;7.62;79.50;101180.72;10463712;28;19935;-78
2022/01/05 20:11:27;;;;;;;;;;;;;;;7.56;79.56;101181.06;10466069;28;19924;-77
2022/01/05 20:16:29;;;;;;;;;;;;;;;7.51;78.53;101183.94;10461930;28;19928;-77
2022/01/05 20:21:30;;;;;;;;;;;;;;;7.46;79.32;101186.00;10467073;28;19936;-78
2022/01/05 20:26:33;;;;;;;;;;;;;;;7.46;78.37;101182.47;10473514;28;19928;-78
2022/01/05 20:31:36;;;;;;;;;;;;;;;7.45;78.75;101194.06;10465870;28;19924;-78
2022/01/05 20:36:37;;;;;;;;;;;;;;;7.44;78.72;101208.28;10469985;28;19920;-77
2022/01/05 20:41:40;;;;;;;;;;;;;;;7.42;79.05;101218.97;10473930;28;19924;-77
2022/01/05 20:46:42;;;;;;;;;;;;;;;7.41;78.80;101220.78;10468786;28;19925;-77
2022/01/05 20:51:43;;;;;;;;;;;;;;;7.40;78.63;101224.41;10470691;28;19920;-77
2022/01/05 20:56:46;;;;;;;;;;;;;;;7.40;78.04;101224.41;10471847;28;19928;-77
2022/01/05 21:01:48;;;;;;;;;;;;;;;7.39;78.06;101235.94;10468118;28;19924;-77
2022/01/05 21:06:49;;;;;;;;;;;;;;;7.38;77.81;101236.03;10470891;28;20377;-77
2022/01/05 21:11:52;;;;;;;;;;;;;;;7.37;78.25;101242.31;10470816;28;20018;-78
2022/01/05 21:16:53;;;;;;;;;;;;;;;7.36;78.39;101248.53;10460352;28;21001;-78
2022/01/05 21:21:55;;;;;;;;;;;;;;;7.35;78.43;101257.47;10452967;28;19929;-77
2022/01/05 21:26:58;;;;;;;;;;;;;;;7.35;78.78;101253.00;10464311;28;20426;-78
2022/01/05 21:32:00;;;;;;;;;;;;;;;7.34;78.46;101258.38;10470330;28;19928;-78
2022/01/05 21:37:02;;;;;;;;;;;;;;;7.31;78.18;101272.69;10464875;28;20007;-78
2022/01/05 21:42:05;;;;;;;;;;;;;;;7.20;78.18;101280.34;10472737;28;19926;-77
2022/01/05 21:47:07;;;;;;;;;;;;;;;7.10;77.48;101268.47;10472864;28;19928;-78
2022/01/05 21:52:08;;;;;;;;;;;;;;;7.07;77.62;101269.47;10467208;28;19924;-78
2022/01/05 21:57:11;;;;;;;;;;;;;;;7.07;77.79;101273.94;10475507;28;19959;-78
2022/01/05 22:02:14;;;;;;;;;;;;;;;7.04;77.12;101280.25;10474731;28;19929;-77
2022/01/05 22:07:16;;;;;;;;;;;;;;;6.96;76.98;101285.94;10472311;28;19955;-78
2022/01/05 22:12:18;;;;;;;;;;;;;;;6.94;76.66;101286.97;10478246;28;19924;-78
2022/01/05 22:17:20;;;;;;;;;;;;;;;6.91;76.23;101282.69;10469785;28;19931;-78
2022/01/05 22:22:22;;;;;;;;;;;;;;;6.89;76.63;101288.97;10464170;28;20050;-78
2022/01/05 22:27:25;;;;;;;;;;;;;;;6.85;76.71;101288.25;10472999;28;20580;-78
2022/01/05 22:32:27;;;;;;;;;;;;;;;6.83;76.40;101288.34;10474918;28;20233;-78
2022/01/05 22:37:29;;;;;;;;;;;;;;;6.79;76.50;101289.44;10465274;28;19928;-79
2022/01/05 22:42:32;;;;;;;;;;;;;;;6.75;76.48;101319.72;10469434;28;19924;-79
2022/01/05 22:47:33;;;;;;;;;;;;;;;6.74;76.42;101330.41;10477977;28;19928;-79
2022/01/05 22:52:35;;;;;;;;;;;;;;;6.73;76.33;101336.66;10476242;28;19936;-79
2022/01/05 22:57:38;;;;;;;;;;;;;;;6.72;76.40;101338.44;10480587;28;19931;-79
2022/01/05 23:02:39;;;;;;;;;;;;;;;6.73;76.12;101353.44;10476853;28;19973;-79
2022/01/05 23:07:41;;;;;;;;;;;;;;;6.72;75.84;101369.44;10476961;28;20365;-79
2022/01/05 23:12:43;;;;;;;;;;;;;;;6.70;75.90;101377.47;10481006;28;19932;-79
2022/01/05 23:17:45;;;;;;;;;;;;;;;6.69;75.71;101380.22;10478523;28;20292;-79
2022/01/05 23:22:47;;;;;;;;;;;;;;;6.64;75.63;101375.09;10476751;28;19957;-78
2022/01/05 23:27:52;;;;;;;;;;;;;;;6.59;75.38;101371.78;10478931;28;19932;-77
2022/01/05 23:32:56;;;;;;;;;;;;;;;6.51;75.66;101372.16;10475009;28;19931;-77
2022/01/05 23:37:59;;;;;;;;;;;;;;;6.47;75.43;101380.34;10473689;28;19924;-77
2022/01/05 23:43:05;;;;;;;;;;;;;;;6.46;75.34;101390.09;10476052;28;20924;-78
2022/01/05 23:48:08;;;;;;;;;;;;;;;6.48;75.52;101393.53;10471084;28;19931;-78
2022/01/05 23:53:10;;;;;;;;;;;;;;;6.47;75.16;101402.41;10471689;28;19929;-77
2022/01/05 23:58:13;;;;;;;;;;;;;;;6.47;75.01;101398.91;10474445;28;19924;-77
